createdAt,value
2023-05-24T00:00:24.845Z,3.10
2023-05-24T00:01:26.577Z,3.13
2023-05-24T00:02:28.417Z,3.10
2023-05-24T00:03:31.250Z,3.22
2023-05-24T00:04:33.713Z,3.45
2023-05-24T00:05:38.022Z,2.95
2023-05-24T00:06:39.803Z,3.45
2023-05-24T00:07:41.575Z,3.13
2023-05-24T00:08:43.399Z,3.17
2023-05-24T00:09:45.197Z,2.90
2023-05-24T00:10:47.008Z,2.83
2023-05-24T00:11:48.851Z,3.40
2023-05-24T00:12:51.014Z,2.97
2023-05-24T00:13:52.788Z,3.28
2023-05-24T00:14:54.601Z,3.47
2023-05-24T00:15:56.400Z,3.22
2023-05-24T00:16:58.282Z,3.42
2023-05-24T00:18:00.247Z,3.70
2023-05-24T00:19:02.390Z,3.50
2023-05-24T00:20:06.673Z,3.05
2023-05-24T00:21:09.127Z,3.40
2023-05-24T00:22:11.993Z,3.53
2023-05-24T00:23:13.746Z,3.30
2023-05-24T00:24:17.361Z,3.17
2023-05-24T00:25:19.212Z,3.60
2023-05-24T00:26:21.599Z,3.33
2023-05-24T00:27:23.411Z,3.80
2023-05-24T00:28:25.242Z,3.08
2023-05-24T00:29:26.981Z,3.63
2023-05-24T00:30:28.769Z,3.60
2023-05-24T00:31:30.696Z,3.92
2023-05-24T00:32:32.509Z,3.83
2023-05-24T00:33:34.524Z,3.38
2023-05-24T00:34:36.314Z,3.40
2023-05-24T00:35:38.060Z,3.33
2023-05-24T00:36:39.837Z,3.15
2023-05-24T00:37:45.331Z,2.95
2023-05-24T00:38:47.446Z,3.20
2023-05-24T00:39:49.193Z,2.88
2023-05-24T00:40:51.157Z,2.90
2023-05-24T00:41:53.212Z,2.88
2023-05-24T00:42:55.061Z,3.30
2023-05-24T00:43:56.879Z,3.40
2023-05-24T00:44:58.648Z,3.10
2023-05-24T00:46:22.532Z,3.35
2023-05-24T00:47:24.528Z,3.30
2023-05-24T00:48:28.948Z,3.50
2023-05-24T00:49:31.580Z,3.28
2023-05-24T00:50:34.033Z,3.60
2023-05-24T00:51:37.206Z,3.65
2023-05-24T00:52:43.068Z,3.45
2023-05-24T00:53:47.509Z,3.50
2023-05-24T00:54:49.852Z,3.63
2023-05-24T00:55:51.723Z,3.70
2023-05-24T00:56:54.964Z,3.13
2023-05-24T00:57:59.697Z,3.05
2023-05-24T00:59:01.471Z,2.95
2023-05-24T01:00:06.000Z,3.72
2023-05-24T01:01:08.466Z,3.13
2023-05-24T01:02:10.675Z,3.42
2023-05-24T01:03:12.546Z,3.25
2023-05-24T01:04:14.664Z,3.22
2023-05-24T01:05:17.563Z,2.78
2023-05-24T01:06:19.791Z,3.20
2023-05-24T01:07:54.611Z,3.58
2023-05-24T01:09:26.001Z,2.97
2023-05-24T01:10:52.468Z,3.65
2023-05-24T01:12:07.148Z,3.45
2023-05-24T01:13:27.459Z,4.13
2023-05-24T01:14:52.190Z,3.15
2023-05-24T01:16:01.604Z,3.05
2023-05-24T01:17:15.244Z,3.30
2023-05-24T01:18:26.245Z,3.60
2023-05-24T01:19:51.884Z,4.15
2023-05-24T01:21:06.810Z,2.97
2023-05-24T01:22:24.566Z,3.55
2023-05-24T01:23:51.902Z,3.30
2023-05-24T01:25:07.569Z,3.00
2023-05-24T01:26:27.972Z,3.67
2023-05-24T01:27:33.408Z,3.13
2023-05-24T01:28:36.266Z,3.47
2023-05-24T01:29:39.197Z,3.38
2023-05-24T01:30:41.991Z,3.55
2023-05-24T01:31:44.264Z,3.47
2023-05-24T01:32:46.306Z,3.65
2023-05-24T01:33:48.256Z,3.25
2023-05-24T01:34:50.064Z,3.88
2023-05-24T01:35:51.918Z,3.53
2023-05-24T01:36:54.208Z,3.40
2023-05-24T01:37:55.942Z,3.63
2023-05-24T01:38:57.723Z,3.53
2023-05-24T01:40:00.247Z,3.45
2023-05-24T01:41:22.804Z,3.00
2023-05-24T01:42:36.727Z,3.28
2023-05-24T01:43:43.484Z,3.40
2023-05-24T01:45:02.323Z,3.75
2023-05-24T01:46:21.307Z,3.08
2023-05-24T01:47:32.789Z,3.45
2023-05-24T01:49:05.303Z,3.78
2023-05-24T01:50:24.443Z,3.28
2023-05-24T01:51:34.426Z,3.50
2023-05-24T01:52:36.449Z,3.53
2023-05-24T01:53:47.095Z,3.60
2023-05-24T01:54:52.199Z,3.90
2023-05-24T01:55:56.770Z,3.50
2023-05-24T01:56:59.941Z,3.80
2023-05-24T01:58:06.044Z,3.95
2023-05-24T01:59:08.913Z,3.38
2023-05-24T02:00:14.445Z,2.97
2023-05-24T02:01:16.687Z,3.90
2023-05-24T02:02:19.279Z,3.78
2023-05-24T02:03:21.757Z,3.80
2023-05-24T02:04:24.734Z,3.03
2023-05-24T02:05:26.503Z,3.40
2023-05-24T02:06:28.307Z,3.00
2023-05-24T02:07:30.095Z,3.03
2023-05-24T02:08:31.878Z,3.33
2023-05-24T02:09:33.761Z,3.08
2023-05-24T02:10:38.477Z,3.20
2023-05-24T02:11:40.580Z,3.45
2023-05-24T02:12:42.362Z,3.70
2023-05-24T02:13:44.180Z,4.20
2023-05-24T02:14:45.931Z,3.20
2023-05-24T02:15:48.075Z,3.30
2023-05-24T02:16:51.000Z,3.72
2023-05-24T02:17:54.880Z,3.42
2023-05-24T02:18:57.571Z,3.90
2023-05-24T02:20:04.010Z,3.45
2023-05-24T02:21:05.932Z,3.53
2023-05-24T02:22:07.828Z,3.60
2023-05-24T02:23:09.679Z,3.72
2023-05-24T02:24:12.637Z,3.70
2023-05-24T02:25:14.667Z,4.00
2023-05-24T02:26:17.919Z,3.47
2023-05-24T02:27:19.714Z,4.38
2023-05-24T02:28:21.497Z,3.88
2023-05-24T02:29:23.319Z,3.38
2023-05-24T02:30:25.370Z,3.47
2023-05-24T02:31:28.928Z,3.70
2023-05-24T02:32:31.496Z,3.97
2023-05-24T02:33:33.925Z,4.10
2023-05-24T02:34:35.796Z,4.60
2023-05-24T02:35:37.527Z,3.92
2023-05-24T02:36:39.285Z,4.10
2023-05-24T02:37:41.205Z,4.53
2023-05-24T02:38:42.973Z,4.22
2023-05-24T02:39:44.700Z,4.05
2023-05-24T02:40:46.473Z,4.10
2023-05-24T02:41:48.211Z,3.95
2023-05-24T02:42:50.135Z,4.68
2023-05-24T02:43:51.860Z,4.25
2023-05-24T02:44:53.762Z,4.47
2023-05-24T02:45:55.718Z,4.93
2023-05-24T02:46:57.518Z,4.50
2023-05-24T02:47:59.351Z,4.50
2023-05-24T02:49:01.206Z,4.53
2023-05-24T02:50:03.156Z,5.53
2023-05-24T02:51:05.080Z,5.13
2023-05-24T02:52:07.242Z,4.88
2023-05-24T02:53:09.007Z,4.80
2023-05-24T02:54:10.782Z,4.35
2023-05-24T02:55:12.576Z,4.38
2023-05-24T02:56:14.347Z,4.38
2023-05-24T02:57:16.730Z,5.07
2023-05-24T02:58:18.486Z,4.97
2023-05-24T02:59:20.226Z,5.03
2023-05-24T03:00:22.111Z,5.10
2023-05-24T03:01:23.924Z,5.55
2023-05-24T03:02:28.700Z,5.70
2023-05-24T03:03:30.842Z,5.50
2023-05-24T03:04:32.750Z,5.28
2023-05-24T03:05:34.523Z,5.25
2023-05-24T03:06:36.490Z,5.35
2023-05-24T03:07:38.230Z,5.82
2023-05-24T03:08:40.689Z,5.30
2023-05-24T03:09:42.585Z,5.72
2023-05-24T03:10:44.708Z,6.18
2023-05-24T03:11:46.588Z,4.68
2023-05-24T03:12:48.352Z,5.70
2023-05-24T03:13:50.267Z,5.30
2023-05-24T03:14:52.115Z,5.63
2023-05-24T03:15:53.937Z,5.95
2023-05-24T03:16:55.842Z,5.38
2023-05-24T03:17:57.584Z,5.97
2023-05-24T03:19:00.171Z,5.72
2023-05-24T03:20:02.085Z,5.50
2023-05-24T03:21:04.121Z,4.93
2023-05-24T03:22:06.347Z,6.57
2023-05-24T03:23:09.855Z,6.45
2023-05-24T03:24:13.346Z,5.90
2023-05-24T03:25:15.203Z,5.75
2023-05-24T03:26:18.802Z,6.13
2023-05-24T03:27:20.572Z,5.78
2023-05-24T03:28:22.451Z,6.13
2023-05-24T03:29:24.263Z,5.88
2023-05-24T03:30:26.141Z,6.35
2023-05-24T03:31:28.219Z,5.50
2023-05-24T03:32:30.001Z,6.35
2023-05-24T03:33:32.272Z,5.95
2023-05-24T03:34:34.016Z,5.10
2023-05-24T03:35:35.877Z,5.72
2023-05-24T03:36:37.670Z,5.28
2023-05-24T03:37:39.488Z,5.57
2023-05-24T03:38:41.282Z,6.05
2023-05-24T03:39:43.019Z,6.72
2023-05-24T03:40:44.888Z,5.53
2023-05-24T03:41:46.709Z,6.03
2023-05-24T03:42:48.453Z,5.55
2023-05-24T03:43:50.588Z,5.47
2023-05-24T03:44:52.348Z,5.20
2023-05-24T03:45:54.236Z,5.93
2023-05-24T03:46:56.106Z,5.30
2023-05-24T03:47:58.592Z,5.43
2023-05-24T03:49:00.431Z,5.22
2023-05-24T03:50:02.225Z,4.70
2023-05-24T03:51:04.148Z,6.20
2023-05-24T03:52:06.375Z,5.22
2023-05-24T03:53:08.164Z,4.43
2023-05-24T03:54:10.146Z,4.47
2023-05-24T03:55:11.893Z,4.43
2023-05-24T03:56:13.641Z,4.03
2023-05-24T03:57:15.780Z,4.05
2023-05-24T03:58:17.601Z,4.18
2023-05-24T03:59:19.942Z,4.30
2023-05-24T04:00:21.835Z,5.65
2023-05-24T04:01:33.518Z,4.93
2023-05-24T04:02:39.836Z,4.75
2023-05-24T04:03:41.847Z,4.70
2023-05-24T04:04:43.635Z,4.20
2023-05-24T04:05:45.852Z,5.10
2023-05-24T04:06:48.134Z,4.22
2023-05-24T04:07:52.665Z,5.22
2023-05-24T04:09:01.081Z,5.35
2023-05-24T04:10:05.044Z,3.83
2023-05-24T04:11:07.275Z,5.10
2023-05-24T04:12:09.290Z,5.07
2023-05-24T04:13:11.252Z,4.63
2023-05-24T04:14:13.016Z,5.15
2023-05-24T04:15:15.397Z,4.50
2023-05-24T04:16:17.614Z,4.80
2023-05-24T04:17:19.516Z,5.28
2023-05-24T04:18:21.891Z,5.20
2023-05-24T04:19:23.740Z,4.43
2023-05-24T04:20:27.312Z,4.85
2023-05-24T04:21:29.213Z,4.78
2023-05-24T04:22:30.960Z,4.80
2023-05-24T04:23:32.758Z,4.95
2023-05-24T04:24:34.504Z,4.35
2023-05-24T04:25:36.377Z,4.80
2023-05-24T04:26:38.156Z,4.53
2023-05-24T04:27:40.104Z,4.53
2023-05-24T04:28:42.540Z,4.45
2023-05-24T04:29:50.073Z,4.57
2023-05-24T04:30:52.458Z,4.18
2023-05-24T04:31:54.248Z,4.78
2023-05-24T04:32:58.928Z,3.95
2023-05-24T04:34:01.875Z,4.57
2023-05-24T04:35:04.506Z,4.07
2023-05-24T04:36:06.465Z,4.53
2023-05-24T04:37:08.988Z,4.35
2023-05-24T04:38:12.682Z,4.78
2023-05-24T04:39:14.495Z,4.72
2023-05-24T04:40:25.246Z,4.57
2023-05-24T04:41:28.342Z,4.60
2023-05-24T04:42:31.860Z,4.47
2023-05-24T04:43:34.930Z,4.38
2023-05-24T04:44:36.794Z,4.60
2023-05-24T04:45:38.523Z,4.28
2023-05-24T04:46:40.335Z,4.38
2023-05-24T04:47:42.537Z,4.35
2023-05-24T04:48:44.833Z,4.57
2023-05-24T04:49:46.566Z,4.32
2023-05-24T04:50:48.349Z,4.65
2023-05-24T04:51:50.156Z,4.00
2023-05-24T04:52:51.939Z,4.68
2023-05-24T04:53:53.724Z,4.20
2023-05-24T04:54:55.740Z,4.57
2023-05-24T04:55:57.610Z,3.92
2023-05-24T04:56:59.527Z,4.60
2023-05-24T04:58:01.376Z,4.35
2023-05-24T04:59:03.164Z,3.58
2023-05-24T05:00:05.699Z,3.58
2023-05-24T05:01:07.844Z,3.90
2023-05-24T05:02:09.846Z,3.70
2023-05-24T05:03:11.910Z,4.55
2023-05-24T05:04:13.958Z,3.45
2023-05-24T05:05:16.353Z,3.50
2023-05-24T05:06:18.114Z,3.83
2023-05-24T05:07:20.215Z,3.90
2023-05-24T05:08:25.516Z,4.10
2023-05-24T05:09:30.905Z,3.80
2023-05-24T05:10:35.157Z,4.20
2023-05-24T05:11:38.024Z,3.78
2023-05-24T05:12:39.796Z,3.97
2023-05-24T05:13:41.601Z,3.90
2023-05-24T05:14:43.424Z,4.20
2023-05-24T05:15:45.182Z,5.13
2023-05-24T05:16:47.140Z,3.90
2023-05-24T05:17:49.438Z,3.83
2023-05-24T05:18:51.249Z,4.32
2023-05-24T05:19:53.056Z,3.67
2023-05-24T05:20:54.804Z,3.90
2023-05-24T05:21:56.591Z,3.97
2023-05-24T05:22:58.350Z,3.88
2023-05-24T05:24:01.145Z,3.83
2023-05-24T05:25:02.929Z,3.50
2023-05-24T05:26:04.746Z,3.75
2023-05-24T05:27:06.829Z,3.70
2023-05-24T05:28:08.556Z,3.78
2023-05-24T05:29:12.996Z,4.03
2023-05-24T05:30:15.024Z,4.00
2023-05-24T05:31:16.780Z,4.10
2023-05-24T05:32:18.632Z,4.10
2023-05-24T05:33:20.602Z,4.38
2023-05-24T05:34:22.407Z,4.47
2023-05-24T05:35:24.379Z,4.25
2023-05-24T05:36:26.228Z,4.03
2023-05-24T05:37:27.951Z,4.22
2023-05-24T05:38:29.694Z,4.03
2023-05-24T05:39:32.119Z,4.50
2023-05-24T05:40:34.117Z,4.13
2023-05-24T05:41:40.204Z,4.32
2023-05-24T05:42:41.999Z,4.45
2023-05-24T05:43:43.726Z,4.28
2023-05-24T05:44:45.531Z,4.25
2023-05-24T05:45:47.436Z,4.15
2023-05-24T05:46:49.293Z,4.40
2023-05-24T05:47:51.827Z,4.45
2023-05-24T05:48:54.898Z,4.90
2023-05-24T05:49:56.730Z,4.38
2023-05-24T05:50:58.505Z,4.70
2023-05-24T05:52:00.294Z,4.65
2023-05-24T05:53:02.068Z,4.53
2023-05-24T05:54:03.945Z,4.65
2023-05-24T05:55:06.284Z,4.60
2023-05-24T05:56:08.046Z,4.45
2023-05-24T05:57:12.430Z,4.20
2023-05-24T05:58:14.278Z,4.55
2023-05-24T05:59:16.199Z,4.15
2023-05-24T06:00:18.493Z,4.80
2023-05-24T06:01:20.276Z,4.82
2023-05-24T06:02:27.677Z,4.45
2023-05-24T06:03:29.747Z,4.78
2023-05-24T06:04:31.666Z,4.30
2023-05-24T06:05:33.694Z,4.53
2023-05-24T06:06:35.464Z,4.40
2023-05-24T06:07:38.777Z,4.75
2023-05-24T06:08:41.094Z,4.88
2023-05-24T06:09:42.881Z,4.82
2023-05-24T06:10:47.355Z,4.35
2023-05-24T06:11:49.153Z,4.40
2023-05-24T06:12:51.169Z,4.88
2023-05-24T06:13:53.651Z,4.43
2023-05-24T06:14:57.684Z,4.65
2023-05-24T06:16:00.034Z,4.43
2023-05-24T06:17:02.297Z,4.40
2023-05-24T06:18:05.578Z,5.63
2023-05-24T06:19:07.935Z,4.38
2023-05-24T06:20:13.824Z,4.32
2023-05-24T06:21:16.699Z,4.38
2023-05-24T06:22:18.547Z,4.80
2023-05-24T06:23:20.585Z,4.55
2023-05-24T06:24:22.404Z,3.97
2023-05-24T06:25:25.041Z,4.13
2023-05-24T06:26:27.474Z,4.35
2023-05-24T06:27:29.219Z,5.03
2023-05-24T06:28:31.052Z,4.50
2023-05-24T06:29:32.850Z,3.80
2023-05-24T06:30:35.766Z,4.82
2023-05-24T06:31:37.872Z,4.22
2023-05-24T06:32:39.987Z,4.45
2023-05-24T06:33:46.726Z,4.20
2023-05-24T06:34:51.327Z,4.68
2023-05-24T06:35:53.120Z,4.18
2023-05-24T06:36:54.855Z,3.92
2023-05-24T06:37:58.121Z,3.90
2023-05-24T06:39:02.680Z,4.38
2023-05-24T06:40:11.397Z,3.88
2023-05-24T06:41:13.302Z,4.10
2023-05-24T06:42:15.048Z,3.90
2023-05-24T06:43:17.591Z,3.75
2023-05-24T06:44:19.617Z,3.40
2023-05-24T06:45:21.464Z,3.80
2023-05-24T06:46:23.311Z,3.60
2023-05-24T06:47:25.413Z,3.83
2023-05-24T06:48:27.446Z,3.30
2023-05-24T06:49:29.574Z,3.85
2023-05-24T06:50:32.663Z,3.78
2023-05-24T06:51:34.615Z,4.03
2023-05-24T06:52:36.392Z,3.80
2023-05-24T06:53:38.119Z,3.95
2023-05-24T06:54:40.082Z,3.35
2023-05-24T06:55:41.873Z,3.85
2023-05-24T06:56:43.663Z,3.28
2023-05-24T06:57:45.532Z,3.30
2023-05-24T06:58:47.714Z,3.50
2023-05-24T06:59:49.495Z,3.20
2023-05-24T07:00:52.302Z,3.80
2023-05-24T07:01:58.907Z,3.83
2023-05-24T07:03:01.922Z,3.67
2023-05-24T07:04:03.771Z,3.50
2023-05-24T07:05:06.605Z,3.70
2023-05-24T07:06:10.148Z,3.35
2023-05-24T07:07:13.809Z,3.40
2023-05-24T07:08:15.669Z,3.60
2023-05-24T07:09:17.952Z,3.30
2023-05-24T07:10:19.809Z,3.67
2023-05-24T07:11:21.858Z,3.95
2023-05-24T07:12:23.731Z,3.30
2023-05-24T07:13:25.481Z,4.50
2023-05-24T07:14:28.305Z,3.95
2023-05-24T07:15:30.443Z,3.28
2023-05-24T07:16:32.286Z,4.20
2023-05-24T07:17:34.249Z,3.50
2023-05-24T07:18:36.477Z,3.80
2023-05-24T07:19:38.286Z,3.88
2023-05-24T07:20:40.434Z,4.00
2023-05-24T07:21:42.468Z,3.40
2023-05-24T07:22:44.517Z,3.45
2023-05-24T07:23:46.276Z,3.60
2023-05-24T07:24:48.061Z,3.10
2023-05-24T07:25:49.787Z,3.70
2023-05-24T07:26:52.696Z,3.13
2023-05-24T07:27:54.436Z,3.60
2023-05-24T07:28:56.489Z,3.38
2023-05-24T07:29:58.828Z,3.50
2023-05-24T07:31:01.081Z,3.63
2023-05-24T07:32:02.889Z,3.55
2023-05-24T07:33:04.740Z,3.35
2023-05-24T07:34:06.565Z,3.53
2023-05-24T07:35:08.916Z,3.17
2023-05-24T07:36:11.920Z,3.55
2023-05-24T07:37:13.717Z,3.38
2023-05-24T07:38:15.503Z,3.45
2023-05-24T07:39:17.266Z,3.58
2023-05-24T07:40:19.210Z,3.38
2023-05-24T07:41:26.704Z,3.10
2023-05-24T07:42:28.518Z,3.25
2023-05-24T07:43:30.514Z,3.05
2023-05-24T07:44:32.384Z,3.50
2023-05-24T07:45:34.285Z,3.17
2023-05-24T07:46:36.130Z,3.63
2023-05-24T07:47:39.608Z,3.47
2023-05-24T07:48:41.708Z,3.38
2023-05-24T07:49:43.488Z,3.40
2023-05-24T07:50:48.866Z,3.15
2023-05-24T07:51:50.744Z,3.15
2023-05-24T07:52:52.661Z,3.45
2023-05-24T07:53:54.551Z,2.92
2023-05-24T07:54:56.316Z,3.15
2023-05-24T07:55:58.058Z,3.15
2023-05-24T07:56:59.866Z,3.20
2023-05-24T07:58:02.174Z,3.00
2023-05-24T07:59:05.310Z,2.90
2023-05-24T08:00:15.156Z,2.97
2023-05-24T08:01:21.400Z,3.23
2023-05-24T08:02:23.414Z,3.15
2023-05-24T08:03:26.065Z,3.17
2023-05-24T08:04:28.248Z,2.80
2023-05-24T08:05:30.188Z,3.10
2023-05-24T08:06:35.297Z,3.35
2023-05-24T08:07:37.151Z,3.10
2023-05-24T08:08:40.371Z,3.50
2023-05-24T08:09:42.178Z,3.05
2023-05-24T08:10:44.002Z,2.92
2023-05-24T08:11:45.968Z,3.17
2023-05-24T08:12:47.936Z,3.67
2023-05-24T08:13:49.680Z,3.60
2023-05-24T08:14:51.458Z,2.97
2023-05-24T08:15:53.257Z,3.45
2023-05-24T08:16:55.033Z,3.20
2023-05-24T08:17:57.022Z,3.15
2023-05-24T08:18:58.837Z,3.08
2023-05-24T08:20:01.208Z,2.95
2023-05-24T08:21:03.038Z,3.17
2023-05-24T08:22:05.048Z,3.33
2023-05-24T08:23:06.942Z,3.50
2023-05-24T08:24:09.648Z,3.40
2023-05-24T08:25:14.609Z,3.55
2023-05-24T08:26:19.274Z,2.80
2023-05-24T08:27:21.548Z,4.47
2023-05-24T08:28:23.480Z,3.22
2023-05-24T08:29:25.485Z,3.10
2023-05-24T08:30:27.300Z,3.25
2023-05-24T08:31:29.058Z,3.08
2023-05-24T08:32:32.403Z,3.05
2023-05-24T08:33:34.213Z,2.97
2023-05-24T08:34:39.017Z,3.25
2023-05-24T08:35:41.589Z,3.15
2023-05-24T08:36:44.078Z,3.15
2023-05-24T08:37:47.466Z,3.25
2023-05-24T08:38:49.281Z,3.15
2023-05-24T08:39:51.282Z,3.13
2023-05-24T08:40:53.197Z,3.20
2023-05-24T08:42:08.525Z,3.30
2023-05-24T08:43:12.368Z,3.20
2023-05-24T08:44:14.591Z,3.38
2023-05-24T08:45:18.212Z,3.00
2023-05-24T08:46:20.436Z,2.90
2023-05-24T08:47:22.657Z,3.20
2023-05-24T08:48:25.900Z,2.85
2023-05-24T08:49:32.083Z,3.17
2023-05-24T08:50:35.789Z,2.97
2023-05-24T08:51:39.834Z,3.25
2023-05-24T08:52:42.839Z,3.58
2023-05-24T08:53:48.861Z,3.05
2023-05-24T08:54:53.232Z,3.10
2023-05-24T08:55:56.293Z,2.90
2023-05-24T08:56:59.474Z,3.33
2023-05-24T08:58:01.515Z,3.10
2023-05-24T08:59:03.342Z,3.50
2023-05-24T09:00:07.292Z,2.95
2023-05-24T09:01:11.554Z,3.00
2023-05-24T09:02:15.314Z,2.90
2023-05-24T09:03:18.820Z,2.80
2023-05-24T09:04:25.268Z,3.45
2023-05-24T09:05:28.880Z,2.90
2023-05-24T09:06:30.852Z,2.85
2023-05-24T09:07:33.355Z,2.67
2023-05-24T09:08:37.544Z,3.03
2023-05-24T09:09:45.413Z,3.40
2023-05-24T09:10:55.014Z,2.90
2023-05-24T09:12:02.285Z,2.75
2023-05-24T09:13:07.481Z,3.03
2023-05-24T09:14:09.757Z,2.85
2023-05-24T09:15:12.252Z,2.90
2023-05-24T09:16:15.555Z,2.47
2023-05-24T09:17:17.550Z,2.80
2023-05-24T09:18:19.431Z,2.83
2023-05-24T09:19:21.326Z,3.00
2023-05-24T09:20:23.524Z,2.45
2023-05-24T09:21:25.783Z,2.58
2023-05-24T09:22:30.674Z,2.92
2023-05-24T09:23:32.868Z,2.47
2023-05-24T09:24:41.693Z,2.70
2023-05-24T09:25:48.096Z,2.50
2023-05-24T09:26:51.160Z,2.83
2023-05-24T09:27:53.919Z,2.40
2023-05-24T09:28:56.665Z,2.72
2023-05-24T09:29:59.019Z,2.50
2023-05-24T09:31:06.370Z,2.72
2023-05-24T09:32:09.516Z,2.47
2023-05-24T09:33:12.965Z,2.55
2023-05-24T09:34:18.069Z,2.78
2023-05-24T09:35:19.864Z,2.67
2023-05-24T09:36:22.027Z,2.72
2023-05-24T09:37:31.093Z,2.97
2023-05-24T09:38:36.505Z,2.78
2023-05-24T09:39:42.232Z,2.80
2023-05-24T09:40:45.008Z,2.70
2023-05-24T09:41:56.797Z,3.13
2023-05-24T09:43:09.949Z,2.72
2023-05-24T09:44:15.499Z,2.83
2023-05-24T09:45:17.805Z,2.97
2023-05-24T09:46:20.269Z,2.58
2023-05-24T09:47:22.245Z,2.88
2023-05-24T09:48:24.243Z,2.85
2023-05-24T09:49:26.065Z,3.10
2023-05-24T09:50:27.943Z,2.60
2023-05-24T09:51:31.177Z,2.97
2023-05-24T09:52:37.087Z,3.28
2023-05-24T09:53:38.909Z,3.20
2023-05-24T09:54:41.881Z,2.88
2023-05-24T09:55:43.874Z,3.17
2023-05-24T09:56:46.859Z,2.90
2023-05-24T09:57:54.010Z,2.90
2023-05-24T09:58:56.856Z,2.92
2023-05-24T09:59:59.620Z,2.83
2023-05-24T10:01:09.186Z,3.13
2023-05-24T10:02:12.639Z,3.20
2023-05-24T10:03:15.391Z,2.78
2023-05-24T10:04:17.440Z,2.80
2023-05-24T10:05:19.398Z,3.00
2023-05-24T10:06:21.407Z,3.03
2023-05-24T10:07:23.203Z,2.80
2023-05-24T10:08:26.571Z,3.28
2023-05-24T10:09:34.231Z,2.60
2023-05-24T10:10:36.688Z,2.97
2023-05-24T10:11:38.618Z,2.67
2023-05-24T10:12:46.989Z,2.75
2023-05-24T10:13:49.706Z,2.90
2023-05-24T10:14:52.583Z,2.72
2023-05-24T10:15:54.450Z,3.25
2023-05-24T10:16:56.634Z,2.50
2023-05-24T10:18:00.134Z,2.70
2023-05-24T10:19:01.991Z,2.95
2023-05-24T10:20:07.011Z,3.05
2023-05-24T10:21:11.337Z,2.70
2023-05-24T10:22:14.347Z,3.10
2023-05-24T10:23:21.791Z,3.13
2023-05-24T10:24:27.147Z,2.72
2023-05-24T10:25:30.084Z,2.78
2023-05-24T10:26:32.973Z,2.78
2023-05-24T10:27:36.128Z,2.55
2023-05-24T10:28:49.126Z,2.63
2023-05-24T10:30:08.049Z,2.72
2023-05-24T10:31:16.125Z,2.88
2023-05-24T10:32:19.702Z,2.90
2023-05-24T10:33:24.226Z,2.83
2023-05-24T10:34:26.906Z,2.90
2023-05-24T10:35:29.892Z,2.80
2023-05-24T10:36:32.831Z,3.20
2023-05-24T10:37:34.669Z,2.80
2023-05-24T10:38:40.151Z,2.88
2023-05-24T10:39:42.144Z,2.72
2023-05-24T10:40:44.028Z,2.72
2023-05-24T10:41:45.951Z,2.92
2023-05-24T10:42:48.300Z,2.65
2023-05-24T10:44:07.881Z,2.83
2023-05-24T10:45:33.071Z,2.83
2023-05-24T10:46:35.080Z,3.17
2023-05-24T10:47:39.161Z,3.05
2023-05-24T10:48:44.107Z,2.83
2023-05-24T10:49:54.856Z,2.83
2023-05-24T10:52:03.340Z,2.83
2023-05-24T10:53:19.129Z,3.40
2023-05-24T10:54:27.369Z,2.58
2023-05-24T10:55:29.219Z,2.88
2023-05-24T10:56:31.299Z,2.65
2023-05-24T10:57:33.379Z,3.15
2023-05-24T10:58:38.061Z,3.22
2023-05-24T10:59:40.492Z,3.55
2023-05-24T11:00:44.639Z,3.10
2023-05-24T11:01:55.256Z,3.05
2023-05-24T11:03:11.132Z,3.10
2023-05-24T11:04:17.198Z,2.83
2023-05-24T11:05:19.903Z,2.80
2023-05-24T11:06:55.786Z,3.60
2023-05-24T11:08:01.697Z,2.80
2023-05-24T11:09:03.680Z,2.80
2023-05-24T11:10:10.523Z,3.05
2023-05-24T11:12:20.824Z,3.33
2023-05-24T11:13:22.680Z,2.95
2023-05-24T11:14:27.785Z,2.83
2023-05-24T11:15:30.401Z,2.53
2023-05-24T11:16:40.142Z,2.88
2023-05-24T11:18:09.247Z,2.80
2023-05-24T11:19:18.104Z,2.90
2023-05-24T11:20:20.668Z,2.60
2023-05-24T11:21:23.794Z,2.90
2023-05-24T11:22:26.924Z,2.80
2023-05-24T11:23:29.965Z,2.67
2023-05-24T11:24:33.154Z,2.90
2023-05-24T11:25:38.864Z,2.97
2023-05-24T11:26:41.344Z,2.90
2023-05-24T11:27:44.803Z,3.15
2023-05-24T11:28:47.878Z,2.83
2023-05-24T11:29:49.707Z,2.75
2023-05-24T11:30:53.636Z,2.97
2023-05-24T11:32:06.184Z,3.40
2023-05-24T11:33:16.258Z,3.10
2023-05-24T11:34:19.141Z,3.03
2023-05-24T11:35:23.238Z,3.17
2023-05-24T11:36:26.205Z,2.97
2023-05-24T11:37:38.630Z,3.60
2023-05-24T11:38:49.000Z,2.90
2023-05-24T11:39:54.512Z,3.22
2023-05-24T11:40:58.491Z,2.95
2023-05-24T11:42:01.562Z,2.97
2023-05-24T11:43:06.822Z,2.97
2023-05-24T11:44:10.399Z,3.15
2023-05-24T11:45:14.074Z,2.78
2023-05-24T11:46:16.519Z,2.80
2023-05-24T11:47:20.902Z,2.80
2023-05-24T11:48:22.780Z,2.60
2023-05-24T11:49:24.578Z,3.00
2023-05-24T11:50:28.505Z,2.80
2023-05-24T11:51:32.348Z,3.00
2023-05-24T11:52:40.163Z,3.00
2023-05-24T11:53:41.941Z,3.20
2023-05-24T11:54:43.839Z,3.08
2023-05-24T11:55:45.667Z,3.00
2023-05-24T11:56:47.867Z,2.80
2023-05-24T11:57:57.976Z,3.00
2023-05-24T11:59:23.775Z,3.10
2023-05-24T12:00:26.898Z,3.20
2023-05-24T12:01:29.106Z,2.97
2023-05-24T12:02:31.181Z,3.28
2023-05-24T12:03:33.215Z,3.20
2023-05-24T12:04:35.385Z,2.92
2023-05-24T12:05:38.129Z,2.75
2023-05-24T12:06:42.384Z,2.92
2023-05-24T12:07:48.918Z,2.63
2023-05-24T12:08:50.887Z,3.58
2023-05-24T12:09:52.768Z,3.10
2023-05-24T12:10:54.800Z,3.53
2023-05-24T12:11:58.544Z,3.35
2023-05-24T12:13:00.725Z,3.15
2023-05-24T12:14:02.932Z,3.13
2023-05-24T12:15:08.123Z,3.03
2023-05-24T12:16:12.202Z,3.10
2023-05-24T12:17:18.551Z,2.95
2023-05-24T12:18:24.833Z,3.00
2023-05-24T12:19:34.837Z,3.10
2023-05-24T12:20:39.250Z,3.10
2023-05-24T12:21:41.930Z,3.00
2023-05-24T12:22:51.815Z,3.40
2023-05-24T12:23:53.637Z,2.90
2023-05-24T12:24:55.454Z,3.30
2023-05-24T12:26:01.163Z,2.63
2023-05-24T12:27:07.988Z,3.20
2023-05-24T12:28:10.102Z,3.15
2023-05-24T12:29:12.854Z,2.80
2023-05-24T12:30:21.423Z,2.92
2023-05-24T12:31:23.282Z,2.80
2023-05-24T12:32:25.601Z,2.67
2023-05-24T12:33:27.672Z,3.20
2023-05-24T12:34:29.956Z,3.10
2023-05-24T12:35:31.889Z,3.15
2023-05-24T12:36:35.778Z,2.95
2023-05-24T12:37:37.502Z,2.83
2023-05-24T12:38:39.346Z,3.20
2023-05-24T12:39:43.421Z,2.67
2023-05-24T12:40:57.057Z,2.78
2023-05-24T12:42:11.673Z,3.30
2023-05-24T12:43:15.029Z,2.75
2023-05-24T12:44:16.796Z,3.17
2023-05-24T12:45:26.043Z,2.85
2023-05-24T12:46:27.924Z,3.20
2023-05-24T12:47:29.829Z,3.03
2023-05-24T12:48:31.682Z,2.70
2023-05-24T12:49:33.991Z,3.20
2023-05-24T12:50:35.981Z,2.85
2023-05-24T12:51:37.775Z,3.15
2023-05-24T12:52:39.600Z,2.95
2023-05-24T12:53:41.667Z,3.15
2023-05-24T12:54:43.423Z,3.00
2023-05-24T12:55:45.490Z,2.80
2023-05-24T12:56:47.513Z,2.70
2023-05-24T12:57:56.160Z,2.78
2023-05-24T12:58:58.012Z,3.13
2023-05-24T12:59:59.761Z,2.65
2023-05-24T13:01:01.754Z,2.90
2023-05-24T13:02:03.570Z,2.38
2023-05-24T13:03:05.396Z,3.25
2023-05-24T13:04:07.364Z,3.10
2023-05-24T13:05:09.275Z,2.88
2023-05-24T13:06:11.307Z,2.60
2023-05-24T13:07:13.236Z,3.05
2023-05-24T13:08:15.034Z,2.92
2023-05-24T13:09:21.970Z,3.08
2023-05-24T13:10:24.838Z,3.03
2023-05-24T13:11:27.757Z,2.92
2023-05-24T13:12:29.639Z,3.17
2023-05-24T13:13:32.704Z,2.80
2023-05-24T13:14:34.660Z,2.78
2023-05-24T13:15:38.153Z,2.90
2023-05-24T13:16:40.015Z,2.75
2023-05-24T13:17:42.924Z,2.80
2023-05-24T13:18:46.417Z,3.17
2023-05-24T13:19:48.184Z,3.00
2023-05-24T13:20:51.194Z,2.70
2023-05-24T13:21:53.092Z,2.80
2023-05-24T13:22:54.898Z,3.13
2023-05-24T13:23:56.643Z,3.03
2023-05-24T13:24:58.769Z,2.88
2023-05-24T13:26:00.766Z,2.80
2023-05-24T13:27:03.630Z,3.17
2023-05-24T13:28:05.420Z,2.95
2023-05-24T13:29:32.210Z,2.83
2023-05-24T13:30:30.148Z,3.08
2023-05-24T13:31:32.009Z,2.58
2023-05-24T13:32:33.858Z,3.10
2023-05-24T13:33:35.675Z,3.10
2023-05-24T13:34:37.484Z,3.10
2023-05-24T13:35:40.040Z,2.80
2023-05-24T13:36:43.151Z,2.67
2023-05-24T13:37:44.928Z,3.13
2023-05-24T13:38:46.676Z,2.70
2023-05-24T13:39:49.718Z,2.95
2023-05-24T13:40:53.730Z,2.95
2023-05-24T13:41:55.601Z,2.92
2023-05-24T13:42:58.164Z,2.95
2023-05-24T13:44:00.069Z,2.90
2023-05-24T13:45:03.622Z,3.08
2023-05-24T13:46:05.449Z,3.20
2023-05-24T13:47:08.764Z,3.17
2023-05-24T13:48:10.851Z,3.17
2023-05-24T13:49:12.969Z,2.70
2023-05-24T13:50:14.973Z,3.10
2023-05-24T13:51:18.861Z,2.80
2023-05-24T13:52:20.672Z,3.10
2023-05-24T13:53:23.191Z,2.75
2023-05-24T13:54:25.206Z,2.95
2023-05-24T13:55:28.838Z,2.53
2023-05-24T13:56:33.280Z,2.60
2023-05-24T13:57:50.325Z,3.05
2023-05-24T13:58:53.721Z,2.38
2023-05-24T13:59:55.527Z,3.00
2023-05-24T14:00:57.413Z,2.55
2023-05-24T14:01:59.394Z,3.28
2023-05-24T14:03:01.297Z,2.90
2023-05-24T14:04:05.014Z,3.25
2023-05-24T14:05:24.744Z,4.32
2023-05-24T14:06:28.195Z,4.40
2023-05-24T14:07:30.051Z,4.20
2023-05-24T14:08:31.819Z,4.05
2023-05-24T14:09:33.628Z,3.92
2023-05-24T14:10:37.142Z,3.35